Time;durP1;ratioP1;P1;durP2;ratioP2;P2;SDS_P1;SDS_P2;PMS_P1;PMS_P2;Temp;Humidity;BMP_temperature;BMP_pressure;BME280_temperature;BME280_humidity;BME280_pressure;Samples;Min_cycle;Max_cycle;Signal;HPM_P1;HPM_P2
2023/09/04 06:12:25;;;;;;;10.97;5.63;;;15.10;99.90;;;;;;4987571;23;20752;-71
2023/09/04 06:14:52;;;;;;;12.33;5.70;;;15.30;99.90;;;;;;4951554;28;20298;-72
2023/09/04 06:17:19;;;;;;;10.87;6.30;;;15.50;99.90;;;;;;4972133;28;20211;-73
2023/09/04 06:19:46;;;;;;;11.17;6.33;;;15.60;99.90;;;;;;4962468;28;20586;-72
2023/09/04 06:22:13;;;;;;;11.63;6.00;;;15.80;99.90;;;;;;4952799;29;20628;-71
2023/09/04 06:24:39;;;;;;;10.60;6.20;;;16.30;99.90;;;;;;4954886;29;20207;-72
2023/09/04 06:27:06;;;;;;;10.33;6.60;;;17.00;99.90;;;;;;4954380;29;20240;-73
2023/09/04 06:29:35;;;;;;;10.30;5.38;;;17.60;99.90;;;;;;4954609;28;20314;-72
2023/09/04 06:32:02;;;;;;;8.95;5.55;;;18.20;99.90;;;;;;4955070;29;20235;-73
2023/09/04 06:34:29;;;;;;;8.98;5.95;;;18.60;99.90;;;;;;4954941;29;20698;-72
2023/09/04 06:36:56;;;;;;;6.75;4.80;;;19.10;99.90;;;;;;4954743;29;20212;-72
2023/09/04 06:39:22;;;;;;;8.10;4.90;;;19.60;99.90;;;;;;4954660;28;20710;-72
2023/09/04 06:41:50;;;;;;;6.68;4.35;;;20.10;99.90;;;;;;4954923;29;20623;-72
2023/09/04 06:44:17;;;;;;;6.53;4.32;;;20.30;99.90;;;;;;4954694;29;20219;-72
2023/09/04 06:46:45;;;;;;;8.05;5.13;;;20.40;99.90;;;;;;4954727;29;20620;-73
2023/09/04 06:49:13;;;;;;;8.02;4.45;;;20.60;99.90;;;;;;4954717;28;20259;-73
2023/09/04 06:51:40;;;;;;;7.43;5.03;;;20.20;99.90;;;;;;4954815;29;20564;-72
2023/09/04 06:54:07;;;;;;;6.53;4.55;;;20.30;99.90;;;;;;4954941;29;20212;-72
2023/09/04 06:56:34;;;;;;;6.32;4.70;;;20.70;99.90;;;;;;4954721;29;20570;-72
2023/09/04 06:59:01;;;;;;;6.63;4.13;;;20.90;99.90;;;;;;4954517;28;20255;-73
2023/09/04 07:01:28;;;;;;;8.40;4.72;;;21.30;99.90;;;;;;4954756;29;20286;-72
2023/09/04 07:03:56;;;;;;;7.32;4.90;;;21.50;99.90;;;;;;4954679;29;20240;-73
2023/09/04 07:06:23;;;;;;;13.35;4.63;;;21.90;99.90;;;;;;4954498;29;20240;-72
2023/09/04 07:08:50;;;;;;;11.07;4.90;;;22.10;99.90;;;;;;4954522;28;20327;-72
2023/09/04 07:11:17;;;;;;;9.80;4.90;;;22.50;99.90;;;;;;4954856;28;20215;-73
2023/09/04 07:13:44;;;;;;;7.00;4.45;;;22.60;99.90;;;;;;4954401;29;20256;-71
2023/09/04 07:16:11;;;;;;;7.50;4.13;;;22.60;99.90;;;;;;4954333;29;20714;-71
2023/09/04 07:18:38;;;;;;;7.18;4.32;;;22.00;99.90;;;;;;4954453;28;20628;-72
2023/09/04 07:21:06;;;;;;;7.00;4.25;;;22.30;99.90;;;;;;4954596;29;20208;-72
2023/09/04 07:23:33;;;;;;;6.03;3.78;;;22.50;99.90;;;;;;4954530;29;20295;-70
2023/09/04 07:26:01;;;;;;;6.20;3.90;;;22.80;99.90;;;;;;4954580;29;20303;-72
2023/09/04 07:28:28;;;;;;;5.47;3.90;;;23.00;99.90;;;;;;4954396;29;20306;-73
2023/09/04 07:31:09;;;;;;;6.90;4.13;;;23.50;99.90;;;;;;4937489;28;20217;-72
2023/09/04 07:33:36;;;;;;;4.93;3.75;;;23.90;99.90;;;;;;4933272;29;20211;-72
2023/09/04 07:36:03;;;;;;;7.30;3.65;;;24.10;99.90;;;;;;4934121;29;20295;-72
2023/09/04 07:38:32;;;;;;;5.32;3.50;;;24.00;99.90;;;;;;4935974;29;20640;-71
2023/09/04 07:41:03;;;;;;;4.75;3.92;;;24.00;99.90;;;;;;4937038;29;20295;-72
2023/09/04 07:43:31;;;;;;;4.75;3.15;;;24.20;99.90;;;;;;4937336;29;20213;-73
2023/09/04 07:45:58;;;;;;;5.57;3.42;;;24.20;99.90;;;;;;4937799;29;20739;-72
2023/09/04 07:48:25;;;;;;;4.90;3.35;;;24.10;99.90;;;;;;4937880;29;20268;-71
2023/09/04 07:50:53;;;;;;;6.30;3.63;;;23.90;99.90;;;;;;4937630;29;20651;-71
2023/09/04 07:53:20;;;;;;;4.57;3.22;;;23.70;99.90;;;;;;4937208;29;20215;-70
2023/09/04 07:55:48;;;;;;;4.57;3.40;;;23.40;99.90;;;;;;4937695;29;20232;-71
2023/09/04 07:58:15;;;;;;;6.22;3.55;;;23.50;99.90;;;;;;4936609;29;20605;-70
2023/09/04 08:00:45;;;;;;;6.50;3.17;;;24.00;99.90;;;;;;4937958;29;20271;-69
2023/09/04 08:03:12;;;;;;;7.97;3.15;;;23.80;99.90;;;;;;4938157;29;20236;-70
2023/09/04 08:05:39;;;;;;;5.55;3.20;;;24.00;99.90;;;;;;4938176;29;20244;-69
2023/09/04 08:08:09;;;;;;;3.78;2.78;;;24.30;99.90;;;;;;4938112;29;20272;-69
2023/09/04 08:10:39;;;;;;;4.60;3.05;;;24.60;99.90;;;;;;4938033;29;20783;-71
2023/09/04 08:13:08;;;;;;;5.43;2.88;;;24.60;99.90;;;;;;4938027;29;20216;-70
2023/09/04 08:15:35;;;;;;;4.57;2.65;;;24.30;99.90;;;;;;4938096;29;20205;-71
2023/09/04 08:18:02;;;;;;;4.05;2.60;;;24.30;99.90;;;;;;4938156;29;20259;-70
2023/09/04 08:20:29;;;;;;;3.30;2.50;;;24.40;99.90;;;;;;4937864;29;20232;-70
2023/09/04 08:22:56;;;;;;;3.53;2.45;;;24.60;99.90;;;;;;4937725;29;20299;-71
2023/09/04 08:25:23;;;;;;;2.75;2.10;;;24.20;99.90;;;;;;4937490;29;20240;-70
2023/09/04 08:27:50;;;;;;;5.50;2.25;;;24.30;99.90;;;;;;4937671;29;20272;-70
2023/09/04 08:30:18;;;;;;;2.65;1.95;;;24.70;99.90;;;;;;4937328;29;20315;-69
2023/09/04 08:32:45;;;;;;;4.10;2.28;;;24.60;99.90;;;;;;4937828;29;20256;-69
2023/09/04 08:35:13;;;;;;;3.22;2.20;;;24.40;99.90;;;;;;4937512;29;20213;-70
2023/09/04 08:37:40;;;;;;;3.03;2.50;;;23.80;99.90;;;;;;4937214;29;20312;-69
2023/09/04 08:40:07;;;;;;;3.15;2.00;;;23.50;99.90;;;;;;4937451;29;20261;-69
2023/09/04 08:42:36;;;;;;;3.45;2.50;;;24.00;99.90;;;;;;4937641;29;20212;-71
2023/09/04 08:45:04;;;;;;;4.47;1.98;;;24.60;99.90;;;;;;4937498;29;20247;-69
2023/09/04 08:47:33;;;;;;;2.60;2.03;;;24.90;99.90;;;;;;4937618;29;20323;-72
2023/09/04 08:50:02;;;;;;;3.63;2.33;;;25.00;99.90;;;;;;4936735;29;20315;-69
2023/09/04 08:52:29;;;;;;;2.42;1.70;;;25.20;99.90;;;;;;4937118;29;20247;-72
2023/09/04 08:54:56;;;;;;;4.82;2.03;;;25.30;99.90;;;;;;4937325;29;20237;-71
2023/09/04 08:57:26;;;;;;;3.78;2.40;;;25.70;99.90;;;;;;4937206;29;20296;-69
2023/09/04 08:59:53;;;;;;;4.15;2.28;;;25.80;99.90;;;;;;4936866;29;20260;-69
2023/09/04 09:02:20;;;;;;;3.05;1.90;;;25.50;99.90;;;;;;4937303;29;20236;-69
2023/09/04 09:04:50;;;;;;;6.38;2.08;;;25.80;99.90;;;;;;4937082;29;20264;-71
2023/09/04 09:07:18;;;;;;;2.35;1.80;;;25.30;99.90;;;;;;4937261;29;20223;-69
2023/09/04 09:09:50;;;;;;;3.75;1.60;;;25.20;99.90;;;;;;4936949;29;20267;-70
2023/09/04 09:12:17;;;;;;;3.50;1.77;;;25.50;99.90;;;;;;4936903;29;20304;-71
2023/09/04 09:14:44;;;;;;;2.15;1.80;;;26.00;99.90;;;;;;4936880;29;20625;-72
2023/09/04 09:17:14;;;;;;;2.92;1.48;;;26.40;99.90;;;;;;4936810;29;20259;-72
2023/09/04 09:19:41;;;;;;;1.70;1.50;;;26.00;99.90;;;;;;4936783;29;20233;-72
2023/09/04 09:22:15;;;;;;;3.38;1.63;;;25.90;99.90;;;;;;4936561;29;20304;-72
2023/09/04 09:24:52;;;;;;;2.25;1.50;;;26.00;99.90;;;;;;4936665;29;20248;-72
2023/09/04 09:27:20;;;;;;;2.55;1.60;;;26.30;99.90;;;;;;4936749;29;20249;-72
2023/09/04 09:29:48;;;;;;;2.22;1.60;;;25.80;99.90;;;;;;4936599;29;20232;-71
2023/09/04 09:32:16;;;;;;;2.42;1.65;;;25.70;99.90;;;;;;4936498;29;20212;-71
2023/09/04 09:34:49;;;;;;;2.13;1.48;;;25.40;99.90;;;;;;4936536;29;20675;-72
2023/09/04 09:37:18;;;;;;;2.00;1.52;;;25.40;99.90;;;;;;4936853;29;20205;-72
2023/09/04 09:39:45;;;;;;;1.77;1.48;;;24.90;99.90;;;;;;4936466;29;20267;-71
2023/09/04 09:42:12;;;;;;;2.28;1.40;;;24.80;99.90;;;;;;4936283;29;20307;-72
2023/09/04 09:44:39;;;;;;;2.45;1.48;;;24.80;99.90;;;;;;4936479;29;20288;-71
2023/09/04 09:47:08;;;;;;;2.90;1.58;;;24.80;99.90;;;;;;4936129;29;20295;-71
2023/09/04 09:49:35;;;;;;;2.15;1.55;;;24.90;99.90;;;;;;4936044;29;20240;-72
2023/09/04 09:52:03;;;;;;;2.20;1.73;;;25.00;99.90;;;;;;4936383;29;20209;-71
2023/09/04 09:54:39;;;;;;;2.47;1.63;;;24.70;99.90;;;;;;4936411;29;20212;-72
2023/09/04 09:57:08;;;;;;;3.53;1.80;;;24.70;99.90;;;;;;4936011;29;20300;-72
2023/09/04 09:59:36;;;;;;;3.50;1.65;;;24.60;99.90;;;;;;4936185;29;20271;-71
2023/09/04 10:02:04;;;;;;;1.85;1.65;;;24.90;99.90;;;;;;4935363;29;20269;-73
2023/09/04 10:04:32;;;;;;;2.38;1.50;;;24.90;99.90;;;;;;4936407;29;20217;-72
2023/09/04 10:07:00;;;;;;;2.50;1.52;;;25.00;99.90;;;;;;4936230;29;20212;-73
2023/09/04 10:09:28;;;;;;;2.22;1.75;;;25.20;99.90;;;;;;4935833;29;20327;-72
2023/09/04 10:12:03;;;;;;;1.67;1.40;;;24.90;99.90;;;;;;4935975;29;20299;-72
2023/09/04 10:14:36;;;;;;;1.95;1.42;;;24.80;99.90;;;;;;4935823;29;20348;-73
2023/09/04 10:17:04;;;;;;;2.80;1.80;;;24.90;99.90;;;;;;4936008;29;20240;-73
2023/09/04 10:19:36;;;;;;;1.90;1.48;;;25.00;99.90;;;;;;4935598;29;20315;-72
2023/09/04 10:22:08;;;;;;;2.30;1.60;;;25.10;99.90;;;;;;4935501;29;20251;-73
2023/09/04 10:24:45;;;;;;;2.10;1.40;;;25.10;99.90;;;;;;4935823;29;20215;-72
2023/09/04 10:27:17;;;;;;;4.05;1.60;;;24.80;99.90;;;;;;4935938;29;20701;-71
2023/09/04 10:29:48;;;;;;;2.53;1.70;;;24.90;99.90;;;;;;4935691;29;20327;-72
2023/09/04 10:32:15;;;;;;;1.88;1.40;;;24.80;99.90;;;;;;4935701;29;20211;-73
2023/09/04 10:34:42;;;;;;;2.22;1.63;;;24.90;99.90;;;;;;4936166;29;20643;-72
2023/09/04 10:37:11;;;;;;;2.40;1.55;;;24.80;99.90;;;;;;4936099;29;20251;-72
2023/09/04 10:39:39;;;;;;;1.88;1.30;;;24.80;99.90;;;;;;4935908;29;20315;-72
2023/09/04 10:42:06;;;;;;;3.33;1.90;;;25.00;99.90;;;;;;4935598;29;20295;-71
2023/09/04 10:44:48;;;;;;;2.20;1.70;;;25.20;99.90;;;;;;4935125;29;20259;-72
2023/09/04 10:47:15;;;;;;;2.08;1.50;;;25.50;99.90;;;;;;4935662;29;20240;-72
2023/09/04 10:49:43;;;;;;;2.67;1.80;;;25.70;99.90;;;;;;4935580;29;20654;-73
2023/09/04 10:52:10;;;;;;;3.33;1.60;;;25.70;99.90;;;;;;4935676;29;20212;-73
2023/09/04 10:54:37;;;;;;;2.13;1.63;;;25.70;99.90;;;;;;4935741;29;20623;-72
2023/09/04 10:57:07;;;;;;;2.25;1.40;;;25.40;99.90;;;;;;4935384;29;20709;-71
2023/09/04 11:00:01;;;;;;;2.55;1.40;;;25.50;99.90;;;;;;4935101;29;20237;-73
2023/09/04 11:02:29;;;;;;;2.40;1.05;;;25.60;99.90;;;;;;4935509;29;20215;-72
2023/09/04 11:04:56;;;;;;;1.55;1.30;;;25.60;99.90;;;;;;4935380;29;20604;-73
2023/09/04 11:07:29;;;;;;;2.13;1.38;;;25.70;99.90;;;;;;4935257;29;20252;-75
2023/09/04 11:10:17;;;;;;;1.52;1.20;;;25.40;99.90;;;;;;4934134;29;20232;-71
2023/09/04 11:12:45;;;;;;;1.52;1.10;;;25.20;99.90;;;;;;4931816;29;20213;-73
2023/09/04 11:15:16;;;;;;;1.73;1.20;;;25.60;99.90;;;;;;4938477;29;20236;-70
2023/09/04 11:17:46;;;;;;;1.65;1.50;;;25.60;99.90;;;;;;4936257;29;20236;-72
2023/09/04 11:20:17;;;;;;;2.33;1.48;;;25.60;99.90;;;;;;4938389;29;20260;-72
2023/09/04 11:22:48;;;;;;;2.42;1.60;;;25.40;99.90;;;;;;4936658;29;20280;-72
2023/09/04 11:25:15;;;;;;;2.00;1.63;;;25.70;99.90;;;;;;4938440;29;20212;-71
2023/09/04 11:27:45;;;;;;;2.85;1.58;;;25.70;99.90;;;;;;4939031;29;20292;-71
2023/09/04 11:30:13;;;;;;;1.75;1.25;;;25.30;99.90;;;;;;4937631;29;20315;-71
2023/09/04 11:32:42;;;;;;;2.55;1.67;;;25.40;99.90;;;;;;4937654;29;20629;-72
2023/09/04 11:35:12;;;;;;;2.40;1.70;;;25.30;99.90;;;;;;4938130;29;20240;-72
2023/09/04 11:37:39;;;;;;;2.40;1.65;;;25.20;99.90;;;;;;4938681;29;20695;-72
2023/09/04 11:40:08;;;;;;;3.17;1.30;;;25.20;99.90;;;;;;4938740;29;20296;-72
2023/09/04 11:42:36;;;;;;;1.67;1.35;;;25.30;99.90;;;;;;4938525;29;20228;-70
2023/09/04 11:45:03;;;;;;;1.60;1.45;;;25.40;99.90;;;;;;4938298;29;20205;-71
2023/09/04 11:47:32;;;;;;;1.70;1.40;;;25.30;99.90;;;;;;4938468;29;20213;-71
2023/09/04 11:49:59;;;;;;;2.08;1.70;;;25.40;99.90;;;;;;4938395;29;20275;-72
2023/09/04 11:52:28;;;;;;;3.28;1.80;;;25.20;99.90;;;;;;4938470;29;20251;-72
2023/09/04 11:54:55;;;;;;;2.08;1.60;;;25.20;99.90;;;;;;4938650;29;20244;-71
2023/09/04 11:57:22;;;;;;;3.97;1.80;;;25.50;99.90;;;;;;4938601;29;20244;-72
2023/09/04 11:59:50;;;;;;;3.10;1.77;;;25.60;99.90;;;;;;4938171;29;20311;-72
2023/09/04 12:02:17;;;;;;;2.22;1.48;;;25.60;99.90;;;;;;4938407;29;20255;-71
2023/09/04 12:04:46;;;;;;;2.13;1.60;;;25.50;99.90;;;;;;4938125;29;20668;-70
2023/09/04 12:07:16;;;;;;;2.38;1.67;;;25.60;99.90;;;;;;4938378;29;20302;-71
2023/09/04 12:09:43;;;;;;;2.85;1.77;;;25.50;99.90;;;;;;4938611;29;20256;-71
2023/09/04 12:12:10;;;;;;;1.90;1.45;;;25.60;99.90;;;;;;4938142;29;20244;-72
2023/09/04 12:14:44;;;;;;;2.17;1.63;;;25.70;99.90;;;;;;4937915;29;20240;-71
2023/09/04 12:17:11;;;;;;;3.05;1.45;;;25.80;99.90;;;;;;4938398;29;20215;-72
2023/09/04 12:19:38;;;;;;;2.47;1.35;;;25.70;99.90;;;;;;4937096;29;20223;-70
2023/09/04 12:22:14;;;;;;;2.00;1.50;;;25.70;99.90;;;;;;4937615;29;20240;-70
2023/09/04 12:24:57;;;;;;;2.05;1.40;;;25.60;99.90;;;;;;4931392;29;20612;-72
2023/09/04 12:27:24;;;;;;;2.22;1.35;;;25.60;99.90;;;;;;4934574;29;20609;-71
2023/09/04 12:29:51;;;;;;;1.75;1.15;;;25.60;99.90;;;;;;4937012;29;20315;-72
2023/09/04 12:32:21;;;;;;;1.77;1.10;;;25.70;99.90;;;;;;4937535;29;20235;-71
2023/09/04 12:34:50;;;;;;;1.75;1.10;;;25.60;99.90;;;;;;4935314;29;20244;-71
2023/09/04 12:37:19;;;;;;;1.73;1.20;;;25.50;99.90;;;;;;4937356;29;20204;-71
2023/09/04 12:39:46;;;;;;;1.60;1.30;;;25.70;99.90;;;;;;4937527;29;20256;-71
2023/09/04 12:42:13;;;;;;;1.45;1.20;;;25.90;99.90;;;;;;4937472;29;20301;-71
2023/09/04 12:44:40;;;;;;;1.77;1.30;;;25.80;99.90;;;;;;4937696;29;20216;-72
2023/09/04 12:47:07;;;;;;;1.25;0.80;;;25.80;99.90;;;;;;4937144;29;20240;-72
2023/09/04 12:49:34;;;;;;;2.42;1.20;;;25.70;99.90;;;;;;4937141;29;20611;-72
2023/09/04 12:52:01;;;;;;;1.40;1.10;;;25.80;99.90;;;;;;4937147;29;20239;-71
2023/09/04 12:54:29;;;;;;;3.55;1.50;;;25.80;99.90;;;;;;4937226;29;20240;-72
2023/09/04 12:56:56;;;;;;;1.00;0.90;;;25.80;99.90;;;;;;4937229;29;20251;-72
2023/09/04 12:59:23;;;;;;;1.95;1.00;;;25.90;99.90;;;;;;4937115;29;20668;-70
2023/09/04 13:01:50;;;;;;;2.08;1.55;;;25.90;99.90;;;;;;4936968;29;20236;-71
2023/09/04 13:04:18;;;;;;;1.55;1.10;;;25.80;99.90;;;;;;4936663;29;20209;-72
2023/09/04 13:06:45;;;;;;;1.55;1.15;;;25.80;99.90;;;;;;4937260;29;20215;-72
2023/09/04 13:09:12;;;;;;;1.45;1.02;;;25.60;99.90;;;;;;4936973;29;20271;-72
2023/09/04 13:11:40;;;;;;;1.67;1.20;;;25.60;99.90;;;;;;4936616;29;20236;-72
2023/09/04 13:14:07;;;;;;;1.90;1.30;;;25.60;99.90;;;;;;4936857;29;20236;-72
2023/09/04 13:16:34;;;;;;;3.25;1.48;;;25.70;99.90;;;;;;4936698;29;20255;-72
2023/09/04 13:19:01;;;;;;;1.65;1.10;;;25.80;99.90;;;;;;4936661;29;20770;-73
2023/09/04 13:21:28;;;;;;;1.23;1.00;;;25.90;99.90;;;;;;4936772;29;20252;-71
2023/09/04 13:23:56;;;;;;;1.55;1.02;;;26.00;99.90;;;;;;4936980;29;20240;-71
2023/09/04 13:26:22;;;;;;;2.08;1.20;;;26.00;99.90;;;;;;4936696;29;20219;-73
2023/09/04 13:28:51;;;;;;;1.63;1.10;;;26.10;99.90;;;;;;4936505;29;20694;-73
2023/09/04 13:31:18;;;;;;;1.45;1.10;;;26.30;99.90;;;;;;4936733;29;20236;-73
2023/09/04 13:33:45;;;;;;;1.73;1.30;;;26.20;99.90;;;;;;4936565;29;20205;-72
2023/09/04 13:36:12;;;;;;;1.88;1.40;;;26.20;99.90;;;;;;4936451;29;20244;-73
2023/09/04 13:38:39;;;;;;;2.40;1.20;;;26.00;99.90;;;;;;4936173;29;20244;-73
2023/09/04 13:41:07;;;;;;;3.63;1.48;;;25.90;99.90;;;;;;4936662;29;20213;-72
2023/09/04 13:43:33;;;;;;;1.27;1.10;;;25.80;99.90;;;;;;4936478;29;20251;-73
2023/09/04 13:46:02;;;;;;;1.85;1.33;;;25.90;99.90;;;;;;4947567;29;20730;-71
2023/09/04 13:48:31;;;;;;;1.25;1.02;;;25.90;99.90;;;;;;4955736;29;20218;-72
2023/09/04 13:50:58;;;;;;;1.52;0.93;;;26.10;99.90;;;;;;4954963;28;20239;-72
2023/09/04 13:53:25;;;;;;;1.42;1.05;;;26.10;99.90;;;;;;4955063;29;20750;-73
2023/09/04 13:55:52;;;;;;;1.50;1.10;;;26.10;99.30;;;;;;4955618;29;20239;-73
2023/09/04 13:58:19;;;;;;;2.05;1.20;;;26.00;99.90;;;;;;4955142;29;20264;-74
2023/09/04 14:00:46;;;;;;;1.48;1.00;;;26.00;99.90;;;;;;4954915;28;20287;-73
2023/09/04 14:03:14;;;;;;;2.83;1.30;;;25.90;99.80;;;;;;4955091;29;20239;-72
2023/09/04 14:05:41;;;;;;;1.27;0.90;;;26.00;99.90;;;;;;4955129;29;20334;-73
2023/09/04 14:08:09;;;;;;;1.75;0.93;;;26.20;99.90;;;;;;4955171;29;20243;-73
2023/09/04 14:10:38;;;;;;;1.52;1.20;;;26.20;99.90;;;;;;4954967;28;20244;-72
2023/09/04 14:13:05;;;;;;;1.27;1.00;;;26.00;99.90;;;;;;4945145;29;20236;-72
2023/09/04 14:15:32;;;;;;;1.73;1.10;;;25.90;99.90;;;;;;4938385;28;20251;-72
2023/09/04 14:17:59;;;;;;;1.90;1.10;;;26.00;99.90;;;;;;4935701;29;20292;-72
2023/09/04 14:20:28;;;;;;;1.92;1.17;;;26.10;99.90;;;;;;4951032;28;20251;-72
2023/09/04 14:22:54;;;;;;;1.83;1.10;;;26.10;99.90;;;;;;4949121;28;20291;-73
2023/09/04 14:25:22;;;;;;;1.92;1.02;;;26.00;99.90;;;;;;4935890;29;20299;-71
2023/09/04 14:27:49;;;;;;;2.22;1.27;;;25.90;99.90;;;;;;4935685;29;20232;-73
2023/09/04 14:30:15;;;;;;;2.05;1.20;;;25.90;99.90;;;;;;4935365;29;20236;-72
2023/09/04 14:32:42;;;;;;;2.42;1.10;;;25.90;99.90;;;;;;4948022;29;20232;-72
2023/09/04 14:35:09;;;;;;;2.63;1.08;;;25.80;99.90;;;;;;4935622;29;20267;-72
2023/09/04 14:37:38;;;;;;;1.65;1.17;;;25.80;99.90;;;;;;4935631;29;20243;-72
2023/09/04 14:40:06;;;;;;;3.33;1.35;;;25.80;99.90;;;;;;4935330;29;20719;-70
2023/09/04 14:42:34;;;;;;;1.58;1.30;;;25.90;99.90;;;;;;4935142;29;20295;-71
2023/09/04 14:45:01;;;;;;;1.52;1.17;;;25.90;99.90;;;;;;4935231;29;20567;-72
2023/09/04 14:47:29;;;;;;;1.70;1.40;;;25.90;99.90;;;;;;4935343;29;20235;-70
2023/09/04 14:49:56;;;;;;;1.85;1.20;;;26.10;99.90;;;;;;4939148;29;20243;-71
2023/09/04 14:52:24;;;;;;;1.73;1.30;;;26.00;99.90;;;;;;4939147;29;20209;-70
2023/09/04 14:54:52;;;;;;;2.17;1.17;;;26.10;99.90;;;;;;4920287;29;20210;-70
2023/09/04 14:57:19;;;;;;;1.90;1.38;;;26.10;99.90;;;;;;4920078;29;20664;-72
2023/09/04 14:59:46;;;;;;;2.00;1.30;;;26.10;99.90;;;;;;4937234;29;20268;-69
2023/09/04 15:02:13;;;;;;;2.13;1.40;;;26.30;99.90;;;;;;4938278;29;20292;-70
2023/09/04 15:04:43;;;;;;;1.95;1.42;;;26.30;99.90;;;;;;4935099;29;20201;-70
2023/09/04 15:07:10;;;;;;;2.70;1.70;;;26.30;99.90;;;;;;4938263;29;20247;-71
2023/09/04 15:09:37;;;;;;;4.55;1.60;;;26.40;99.90;;;;;;4936112;29;20240;-72
2023/09/04 15:12:06;;;;;;;1.85;1.50;;;26.40;99.90;;;;;;4938418;29;20265;-71
2023/09/04 15:14:33;;;;;;;2.03;1.60;;;26.40;99.90;;;;;;4935062;29;20265;-72
2023/09/04 15:17:00;;;;;;;2.40;1.70;;;26.30;99.90;;;;;;4937965;29;20241;-73
2023/09/04 15:19:27;;;;;;;2.60;1.50;;;26.30;99.90;;;;;;4938170;29;20647;-71
2023/09/04 15:21:54;;;;;;;1.77;1.40;;;26.30;99.90;;;;;;4938787;29;20268;-72
2023/09/04 15:24:20;;;;;;;2.08;1.33;;;26.30;99.90;;;;;;4938111;29;20263;-73
2023/09/04 15:26:47;;;;;;;1.95;1.40;;;26.40;99.90;;;;;;4928880;29;20205;-73
2023/09/04 15:29:16;;;;;;;2.65;1.35;;;26.40;99.90;;;;;;4922312;29;20252;-71
2023/09/04 15:31:42;;;;;;;2.47;1.70;;;26.40;99.90;;;;;;4937508;29;20236;-72
2023/09/04 15:34:10;;;;;;;1.63;1.30;;;26.30;99.90;;;;;;4937842;29;20300;-73
2023/09/04 15:36:36;;;;;;;1.98;1.33;;;26.40;99.90;;;;;;4937551;29;20212;-73
2023/09/04 15:39:04;;;;;;;1.48;1.30;;;26.40;99.90;;;;;;4937632;29;20256;-73
2023/09/04 15:41:31;;;;;;;2.85;1.73;;;26.30;99.90;;;;;;4937797;29;20656;-72
2023/09/04 15:43:58;;;;;;;3.35;1.58;;;26.30;99.90;;;;;;4937705;29;20251;-72
2023/09/04 15:46:27;;;;;;;2.33;1.42;;;26.30;99.90;;;;;;4937729;29;20205;-72
2023/09/04 15:48:54;;;;;;;3.35;1.70;;;26.30;99.90;;;;;;4937484;29;20321;-75
2023/09/04 15:51:21;;;;;;;3.10;1.25;;;26.30;99.90;;;;;;4937259;29;20271;-73
2023/09/04 15:53:46;;;;;;;3.35;1.70;;;26.30;99.90;;;;;;4938014;29;20256;-73
2023/09/04 15:56:13;;;;;;;5.88;2.80;;;26.20;99.90;;;;;;4935279;29;20263;-72
2023/09/04 15:58:40;;;;;;;2.05;1.40;;;26.20;99.90;;;;;;4935575;29;20744;-71
2023/09/04 16:01:07;;;;;;;2.63;1.48;;;26.10;99.90;;;;;;4932551;29;20287;-70
2023/09/04 16:03:35;;;;;;;2.92;1.50;;;26.00;99.90;;;;;;4934722;29;20291;-70
2023/09/04 16:06:02;;;;;;;2.58;1.50;;;25.90;99.90;;;;;;4936749;29;20293;-71
2023/09/04 16:08:29;;;;;;;3.33;1.20;;;26.00;99.90;;;;;;4936387;29;20205;-71
2023/09/04 16:10:56;;;;;;;2.45;1.63;;;26.00;99.90;;;;;;4936667;29;20335;-69
2023/09/04 16:13:24;;;;;;;1.83;1.40;;;25.90;99.90;;;;;;4935703;29;20300;-70
2023/09/04 16:15:54;;;;;;;1.90;1.35;;;26.00;99.90;;;;;;4936774;29;20244;-71
2023/09/04 16:18:21;;;;;;;2.25;1.33;;;25.90;99.90;;;;;;4933815;29;20614;-72
2023/09/04 16:20:49;;;;;;;2.15;1.65;;;25.90;99.90;;;;;;4937397;29;20308;-73
2023/09/04 16:23:18;;;;;;;2.50;1.50;;;25.80;99.90;;;;;;4938056;29;20255;-72
2023/09/04 16:25:45;;;;;;;1.40;1.30;;;25.90;99.90;;;;;;4937888;29;20216;-71
2023/09/04 16:28:12;;;;;;;1.73;1.17;;;25.90;99.90;;;;;;4937344;29;20441;-72
2023/09/04 16:30:40;;;;;;;3.67;1.50;;;25.90;99.90;;;;;;4937140;29;20245;-73
2023/09/04 16:33:11;;;;;;;2.75;1.35;;;25.90;99.90;;;;;;4937366;29;20251;-73
2023/09/04 16:35:38;;;;;;;1.45;1.30;;;25.70;99.90;;;;;;4937761;29;20219;-72
2023/09/04 16:38:08;;;;;;;1.70;1.20;;;25.70;99.90;;;;;;4937778;29;20723;-72
2023/09/04 16:40:41;;;;;;;2.47;1.50;;;25.70;99.90;;;;;;4937648;29;20233;-73
2023/09/04 16:43:08;;;;;;;1.42;1.33;;;25.80;99.90;;;;;;4937277;29;20208;-72
2023/09/04 16:45:36;;;;;;;3.05;1.38;;;25.70;99.90;;;;;;4937522;29;20212;-73
2023/09/04 16:48:03;;;;;;;1.80;1.40;;;25.50;99.90;;;;;;4937426;29;20213;-72
2023/09/04 16:50:30;;;;;;;2.03;1.30;;;25.50;99.90;;;;;;4936990;29;20723;-73
2023/09/04 16:52:57;;;;;;;1.65;1.25;;;25.50;99.90;;;;;;4937510;29;20232;-73
2023/09/04 16:55:25;;;;;;;2.35;1.65;;;25.50;99.90;;;;;;4937520;29;20295;-74
2023/09/04 16:57:52;;;;;;;2.00;1.45;;;25.50;99.90;;;;;;4937435;29;20205;-71
2023/09/04 17:00:20;;;;;;;1.80;1.15;;;25.50;99.90;;;;;;4937287;29;20613;-73
2023/09/04 17:02:47;;;;;;;1.92;1.35;;;25.40;99.90;;;;;;4937149;29;20256;-73
2023/09/04 17:05:14;;;;;;;2.33;1.52;;;25.30;99.90;;;;;;4937152;29;20244;-73
2023/09/04 17:07:42;;;;;;;1.80;1.30;;;25.30;99.90;;;;;;4936937;29;20267;-73
2023/09/04 17:10:09;;;;;;;1.70;1.20;;;25.30;99.90;;;;;;4936397;29;20287;-73
2023/09/04 17:12:37;;;;;;;1.65;1.40;;;25.20;99.90;;;;;;4936710;29;20256;-73
2023/09/04 17:15:06;;;;;;;2.00;1.80;;;25.10;99.90;;;;;;4936666;29;20747;-73
2023/09/04 17:17:33;;;;;;;3.00;1.48;;;25.10;99.90;;;;;;4936856;29;20213;-72
2023/09/04 17:20:00;;;;;;;1.30;1.20;;;25.20;99.90;;;;;;4937033;29;20225;-72
2023/09/04 17:22:27;;;;;;;3.10;1.55;;;25.20;99.90;;;;;;4936677;29;20248;-72
2023/09/04 17:24:54;;;;;;;2.63;1.67;;;25.20;99.90;;;;;;4936702;29;20267;-73
2023/09/04 17:27:21;;;;;;;3.55;1.60;;;25.20;99.90;;;;;;4936616;29;20248;-73
2023/09/04 17:29:51;;;;;;;2.42;1.42;;;25.10;99.90;;;;;;4936468;29;20228;-74
2023/09/04 17:32:18;;;;;;;2.00;1.27;;;24.90;99.90;;;;;;4936733;29;20243;-74
2023/09/04 17:34:45;;;;;;;3.13;1.58;;;24.80;99.90;;;;;;4936703;29;20248;-73
2023/09/04 17:37:12;;;;;;;1.77;1.35;;;24.80;99.90;;;;;;4936981;29;20260;-73
2023/09/04 17:39:40;;;;;;;5.80;1.60;;;24.70;99.90;;;;;;4936560;29;20228;-74
2023/09/04 17:42:06;;;;;;;1.77;1.30;;;24.60;99.90;;;;;;4936618;29;20212;-73
2023/09/04 17:44:35;;;;;;;1.73;1.15;;;24.50;99.90;;;;;;4936318;29;20252;-73
2023/09/04 17:47:04;;;;;;;3.38;1.67;;;24.40;99.90;;;;;;4936581;29;20205;-71
2023/09/04 17:49:30;;;;;;;3.08;2.05;;;24.30;99.90;;;;;;4936427;29;20280;-71
2023/09/04 17:51:57;;;;;;;2.17;1.50;;;24.20;99.90;;;;;;4936253;29;20275;-72
2023/09/04 17:54:24;;;;;;;4.15;1.38;;;24.10;99.90;;;;;;4935955;29;20628;-74
2023/09/04 17:56:51;;;;;;;3.03;1.60;;;24.00;99.90;;;;;;4935683;29;20291;-74
2023/09/04 17:59:18;;;;;;;2.05;1.50;;;24.00;99.90;;;;;;4935871;29;20264;-73
2023/09/04 18:01:45;;;;;;;2.13;1.38;;;23.80;99.90;;;;;;4936230;29;20300;-72
2023/09/04 18:04:14;;;;;;;2.53;1.15;;;23.80;99.90;;;;;;4936570;29;20256;-71
2023/09/04 18:06:41;;;;;;;1.85;1.52;;;23.80;99.90;;;;;;4936064;29;20572;-70
2023/09/04 18:09:08;;;;;;;1.67;1.33;;;23.60;99.90;;;;;;4936657;29;20264;-71
2023/09/04 18:11:34;;;;;;;3.70;1.42;;;23.50;99.90;;;;;;4935881;29;20329;-72
2023/09/04 18:14:02;;;;;;;1.73;1.35;;;23.40;99.90;;;;;;4935963;29;20288;-72
2023/09/04 18:16:30;;;;;;;4.13;1.58;;;23.40;99.90;;;;;;4935943;29;20300;-72
2023/09/04 18:18:56;;;;;;;2.95;1.58;;;23.40;99.90;;;;;;4935878;29;20280;-72
2023/09/04 18:21:25;;;;;;;8.00;1.70;;;23.30;99.90;;;;;;4936021;29;20244;-72
2023/09/04 18:23:52;;;;;;;2.05;1.45;;;23.20;99.90;;;;;;4935038;29;20252;-71
2023/09/04 18:26:19;;;;;;;2.40;1.23;;;23.20;99.90;;;;;;4935798;29;20738;-71
2023/09/04 18:28:46;;;;;;;3.92;1.58;;;23.00;99.90;;;;;;4935867;29;20251;-72
2023/09/04 18:31:14;;;;;;;1.90;1.40;;;23.00;99.90;;;;;;4935856;29;20275;-72
2023/09/04 18:33:41;;;;;;;1.50;1.30;;;22.90;99.90;;;;;;4935577;29;20209;-73
2023/09/04 18:36:07;;;;;;;2.55;1.17;;;22.80;99.90;;;;;;4935493;29;20646;-73
2023/09/04 18:38:36;;;;;;;2.55;1.25;;;22.70;99.90;;;;;;4935863;29;21349;-70
2023/09/04 18:41:07;;;;;;;2.40;1.50;;;22.80;99.90;;;;;;4935847;29;20244;-71
2023/09/04 18:43:34;;;;;;;1.90;1.10;;;22.80;99.90;;;;;;4935431;29;20291;-72
2023/09/04 18:46:02;;;;;;;2.15;1.23;;;22.70;99.90;;;;;;4935251;29;20200;-73
2023/09/04 18:48:29;;;;;;;1.65;1.20;;;22.70;99.90;;;;;;4935397;29;20216;-73
2023/09/04 18:50:56;;;;;;;1.95;1.42;;;22.60;99.90;;;;;;4935127;29;20648;-73
2023/09/04 18:53:23;;;;;;;2.42;1.30;;;22.50;99.90;;;;;;4934907;29;20293;-73
2023/09/04 18:55:54;;;;;;;7.97;1.30;;;22.50;99.90;;;;;;4935126;29;20630;-73
2023/09/04 18:58:24;;;;;;;2.90;1.45;;;22.40;99.90;;;;;;4934842;29;20223;-73
2023/09/04 19:00:55;;;;;;;4.15;1.30;;;22.40;99.90;;;;;;4935355;29;20232;-73